createdAt,value
2018-06-22T00:01:00.591Z,12.80
2018-06-22T00:03:29.967Z,12.70
2018-06-22T00:05:59.037Z,12.60
2018-06-22T00:08:28.385Z,12.70
2018-06-22T00:10:57.812Z,12.70
2018-06-22T00:13:27.215Z,12.60
2018-06-22T00:15:56.266Z,12.50
2018-06-22T00:18:25.664Z,12.50
2018-06-22T00:20:54.804Z,12.40
2018-06-22T00:23:24.215Z,12.20
2018-06-22T00:25:53.650Z,12.00
2018-06-22T00:30:52.194Z,12.30
2018-06-22T00:33:21.558Z,12.20
2018-06-22T00:35:50.911Z,12.00
2018-06-22T00:38:20.005Z,12.00
2018-06-22T00:40:49.065Z,12.00
2018-06-22T00:43:18.492Z,12.10
2018-06-22T00:45:47.594Z,12.30
2018-06-22T00:48:16.667Z,12.40
2018-06-22T00:50:46.047Z,12.50
2018-06-22T00:53:26.760Z,12.50
2018-06-22T00:55:55.818Z,12.40
2018-06-22T00:58:25.194Z,12.20
2018-06-22T01:00:54.635Z,12.30
2018-06-22T01:03:24.150Z,12.50
2018-06-22T01:05:53.539Z,12.50
2018-06-22T01:08:22.946Z,12.70
2018-06-22T01:10:52.021Z,12.70
2018-06-22T01:13:21.364Z,12.70
2018-06-22T01:15:50.482Z,12.70
2018-06-22T01:18:19.589Z,12.60
2018-06-22T01:20:48.965Z,12.50
2018-06-22T01:23:18.061Z,12.50
2018-06-22T01:25:47.544Z,12.40
2018-06-22T01:28:16.649Z,12.40
2018-06-22T01:30:45.720Z,12.50
2018-06-22T01:33:15.117Z,12.70
2018-06-22T01:35:44.551Z,12.80
2018-06-22T01:38:13.965Z,12.70
2018-06-22T01:40:43.351Z,12.50
2018-06-22T01:43:12.713Z,12.50
2018-06-22T01:45:42.111Z,12.50
2018-06-22T01:48:11.499Z,12.50
2018-06-22T01:50:40.946Z,12.50
2018-06-22T01:53:10.329Z,12.50
2018-06-22T01:55:39.723Z,12.70
2018-06-22T01:58:09.199Z,12.50
2018-06-22T02:00:38.598Z,12.30
2018-06-22T02:03:07.963Z,12.30
2018-06-22T02:05:37.373Z,12.40
2018-06-22T02:08:06.830Z,12.40
2018-06-22T02:10:35.932Z,12.40
2018-06-22T02:13:05.100Z,12.40
2018-06-22T02:15:34.446Z,12.30
2018-06-22T02:18:03.820Z,12.20
2018-06-22T02:20:33.152Z,12.30
2018-06-22T02:23:02.297Z,12.30
2018-06-22T02:25:31.738Z,12.40
2018-06-22T02:28:01.136Z,12.40
2018-06-22T02:30:30.561Z,12.30
2018-06-22T02:33:06.908Z,12.50
2018-06-22T02:35:36.294Z,12.60
2018-06-22T02:38:05.995Z,12.50
2018-06-22T02:40:35.353Z,12.40
2018-06-22T02:43:04.773Z,12.50
2018-06-22T02:45:34.170Z,12.40
2018-06-22T02:48:03.306Z,12.20
2018-06-22T02:50:32.411Z,12.20
2018-06-22T02:53:01.785Z,12.10
2018-06-22T02:55:31.182Z,12.10
2018-06-22T02:58:00.301Z,12.20
2018-06-22T03:00:29.674Z,12.30
2018-06-22T03:02:59.283Z,12.40
2018-06-22T03:05:28.649Z,12.30
2018-06-22T03:07:57.999Z,12.30
2018-06-22T03:10:27.400Z,12.40
2018-06-22T03:12:56.781Z,12.30
2018-06-22T03:15:26.160Z,12.40
2018-06-22T03:17:55.569Z,12.40
2018-06-22T03:20:24.906Z,12.30
2018-06-22T03:22:54.273Z,12.30
2018-06-22T03:25:23.384Z,12.10
2018-06-22T03:27:52.772Z,12.20
2018-06-22T03:30:22.230Z,12.10
2018-06-22T03:32:51.721Z,12.00
2018-06-22T03:35:21.117Z,11.80
2018-06-22T03:37:50.524Z,11.70
2018-06-22T03:40:19.632Z,11.70
2018-06-22T03:42:49.035Z,11.60
2018-06-22T03:45:18.461Z,11.70
2018-06-22T03:47:47.828Z,11.80
2018-06-22T03:50:17.263Z,11.80
2018-06-22T03:52:46.658Z,11.90
2018-06-22T03:55:15.784Z,11.80
2018-06-22T03:57:45.191Z,11.90
2018-06-22T04:00:14.600Z,11.90
2018-06-22T04:02:43.996Z,11.90
2018-06-22T04:05:13.367Z,11.90
2018-06-22T04:07:42.771Z,12.10
2018-06-22T04:10:11.892Z,12.00
2018-06-22T04:12:41.240Z,12.20
2018-06-22T04:15:10.580Z,12.50
2018-06-22T04:17:48.092Z,12.50
2018-06-22T04:20:17.647Z,12.30
2018-06-22T04:22:47.118Z,12.30
2018-06-22T04:25:16.989Z,12.20
2018-06-22T04:27:46.510Z,12.30
2018-06-22T04:30:16.524Z,12.30
2018-06-22T04:32:46.227Z,12.30
2018-06-22T04:35:15.784Z,12.20
2018-06-22T04:37:45.257Z,12.20
2018-06-22T04:40:14.644Z,12.20
2018-06-22T04:42:44.021Z,12.10
2018-06-22T04:45:13.093Z,12.00
2018-06-22T04:47:42.605Z,12.00
2018-06-22T04:50:12.099Z,12.00
2018-06-22T04:52:41.490Z,11.90
2018-06-22T04:55:10.897Z,11.90
2018-06-22T04:57:40.264Z,12.00
2018-06-22T05:00:09.661Z,12.10
2018-06-22T05:02:39.043Z,12.30
2018-06-22T05:05:08.438Z,12.30
2018-06-22T05:07:37.848Z,12.50
2018-06-22T05:10:07.551Z,12.60
2018-06-22T05:12:37.374Z,12.80
2018-06-22T05:15:06.761Z,12.80
2018-06-22T05:17:36.114Z,12.90
2018-06-22T05:20:05.551Z,12.90
2018-06-22T05:22:34.975Z,12.80
2018-06-22T05:25:04.369Z,12.80
2018-06-22T05:27:33.459Z,12.70
2018-06-22T05:30:09.105Z,12.80
2018-06-22T05:32:38.485Z,12.80
2018-06-22T05:35:07.857Z,12.90
2018-06-22T05:37:37.262Z,13.00
2018-06-22T05:40:06.983Z,13.00
2018-06-22T05:42:36.603Z,13.00
2018-06-22T05:45:06.412Z,13.00
2018-06-22T05:47:35.991Z,12.90
2018-06-22T05:50:05.449Z,12.70
2018-06-22T05:52:34.521Z,12.90
2018-06-22T05:55:03.996Z,12.70
2018-06-22T05:57:33.359Z,12.70
2018-06-22T06:00:02.723Z,12.70
2018-06-22T06:02:31.820Z,12.80
2018-06-22T06:05:01.121Z,12.80
2018-06-22T06:07:30.480Z,12.70
2018-06-22T06:09:59.876Z,12.80
2018-06-22T06:12:29.034Z,12.90
2018-06-22T06:14:58.562Z,13.00
2018-06-22T06:17:27.646Z,13.20
2018-06-22T06:19:56.770Z,13.30
2018-06-22T06:22:26.376Z,13.10
2018-06-22T06:24:55.648Z,13.20
2018-06-22T06:27:25.045Z,13.20
2018-06-22T06:29:54.413Z,13.30
2018-06-22T06:32:23.937Z,13.30
2018-06-22T06:34:53.297Z,13.10
2018-06-22T06:37:23.138Z,12.90
2018-06-22T06:39:52.243Z,13.10
2018-06-22T06:42:21.616Z,13.20
2018-06-22T06:44:50.773Z,13.20
2018-06-22T06:47:20.146Z,13.30
2018-06-22T06:49:49.548Z,13.40
2018-06-22T06:52:18.924Z,13.50
2018-06-22T06:54:48.321Z,13.60
2018-06-22T06:57:17.729Z,13.70
2018-06-22T06:59:47.317Z,13.70
2018-06-22T07:02:16.697Z,13.80
2018-06-22T07:04:46.062Z,14.20
2018-06-22T07:07:15.226Z,14.50
2018-06-22T07:09:44.643Z,14.60
2018-06-22T07:12:14.014Z,14.50
2018-06-22T07:14:43.126Z,14.40
2018-06-22T07:17:12.463Z,14.50
2018-06-22T07:19:42.025Z,14.40
2018-06-22T07:22:11.411Z,14.30
2018-06-22T07:24:40.777Z,14.20
2018-06-22T07:27:10.177Z,14.20
2018-06-22T07:29:39.326Z,14.30
2018-06-22T07:32:08.766Z,14.60
2018-06-22T07:34:38.143Z,14.70
2018-06-22T07:37:07.546Z,14.60
2018-06-22T07:39:36.680Z,14.70
2018-06-22T07:42:06.110Z,14.80
2018-06-22T07:44:35.492Z,14.70
2018-06-22T07:47:05.261Z,14.60
2018-06-22T07:49:34.677Z,14.50
2018-06-22T07:52:03.799Z,14.40
2018-06-22T07:54:33.143Z,14.40
2018-06-22T07:57:02.546Z,14.50
2018-06-22T07:59:31.883Z,14.40
2018-06-22T08:02:01.233Z,14.50
2018-06-22T08:04:30.687Z,14.40
2018-06-22T08:07:00.057Z,14.60
2018-06-22T08:09:29.488Z,14.70
2018-06-22T08:11:58.888Z,14.70
2018-06-22T08:14:28.343Z,14.70
2018-06-22T08:16:57.483Z,14.90
2018-06-22T08:19:27.125Z,15.00
2018-06-22T08:21:56.481Z,15.00
2018-06-22T08:24:26.019Z,14.90
2018-06-22T08:26:55.163Z,15.00
2018-06-22T08:29:24.577Z,14.90
2018-06-22T08:31:53.960Z,14.70
2018-06-22T08:34:23.038Z,14.60
2018-06-22T08:36:52.425Z,14.80
2018-06-22T08:39:21.794Z,14.90
2018-06-22T08:41:51.322Z,14.80
2018-06-22T08:44:20.855Z,14.90
2018-06-22T08:49:25.677Z,14.90
2018-06-22T08:51:54.999Z,14.70
2018-06-22T08:54:24.459Z,14.90
2018-06-22T08:56:54.172Z,14.80
2018-06-22T08:59:23.581Z,14.60
2018-06-22T09:01:53.273Z,14.80
2018-06-22T09:04:22.632Z,14.80
2018-06-22T09:06:52.032Z,14.90
2018-06-22T09:09:21.636Z,14.90
2018-06-22T09:11:50.732Z,15.10
2018-06-22T09:14:20.080Z,15.20
2018-06-22T09:16:49.445Z,15.20
2018-06-22T09:19:18.576Z,15.00
2018-06-22T09:21:47.944Z,15.10
2018-06-22T09:24:17.416Z,15.20
2018-06-22T09:26:46.801Z,15.40
2018-06-22T09:29:16.236Z,15.60
2018-06-22T09:31:45.737Z,15.70
2018-06-22T09:34:15.236Z,15.70
2018-06-22T09:36:44.627Z,15.70
2018-06-22T09:39:14.193Z,15.60
2018-06-22T09:41:43.569Z,15.80
2018-06-22T09:44:24.076Z,16.00
2018-06-22T09:46:53.531Z,16.10
2018-06-22T09:49:22.688Z,16.40
2018-06-22T09:51:52.038Z,16.40
2018-06-22T09:54:27.929Z,16.20
2018-06-22T09:56:57.309Z,15.90
2018-06-22T09:59:27.043Z,15.70
2018-06-22T10:01:56.858Z,15.50
2018-06-22T10:04:26.241Z,15.90
2018-06-22T10:06:55.640Z,16.20
2018-06-22T10:09:25.031Z,16.40
2018-06-22T10:11:54.780Z,16.60
2018-06-22T10:14:24.378Z,16.60
2018-06-22T10:16:53.956Z,16.80
2018-06-22T10:19:23.368Z,17.00
2018-06-22T10:21:52.908Z,17.00
2018-06-22T10:24:22.245Z,17.00
2018-06-22T10:26:51.425Z,16.90
2018-06-22T10:29:20.969Z,16.90
2018-06-22T10:31:50.351Z,17.00
2018-06-22T10:34:19.721Z,17.00
2018-06-22T10:36:49.472Z,16.60
2018-06-22T10:39:19.302Z,16.40
2018-06-22T10:41:49.160Z,16.50
2018-06-22T10:44:18.561Z,16.40
2018-06-22T10:46:47.985Z,16.70
2018-06-22T10:49:17.377Z,17.10
2018-06-22T10:51:47.568Z,17.50
2018-06-22T10:54:16.948Z,17.80
2018-06-22T10:56:46.350Z,17.90
2018-06-22T10:59:16.142Z,17.60
2018-06-22T11:01:45.596Z,17.60
2018-06-22T11:04:15.059Z,17.90
2018-06-22T11:06:44.499Z,18.10
2018-06-22T11:09:13.910Z,18.30
2018-06-22T11:11:43.342Z,18.40
2018-06-22T11:14:19.207Z,18.60
2018-06-22T11:16:48.636Z,18.80
2018-06-22T11:19:18.172Z,18.70
2018-06-22T11:21:47.601Z,18.30
2018-06-22T11:24:16.734Z,18.00
2018-06-22T11:26:46.140Z,17.80
2018-06-22T11:29:15.666Z,18.00
2018-06-22T11:31:45.033Z,17.90
2018-06-22T11:34:14.648Z,17.80
2018-06-22T11:36:44.140Z,18.00
2018-06-22T11:39:13.329Z,18.00
2018-06-22T11:41:42.785Z,18.00
2018-06-22T11:44:12.202Z,18.20
2018-06-22T11:46:41.587Z,17.90
2018-06-22T11:49:10.974Z,17.90
2018-06-22T11:51:40.388Z,18.00
2018-06-22T11:54:09.740Z,18.30
2018-06-22T11:56:38.843Z,18.50
2018-06-22T11:59:08.272Z,18.80
2018-06-22T12:01:37.901Z,19.00
2018-06-22T12:04:07.597Z,19.10
2018-06-22T12:06:37.134Z,19.50
2018-06-22T12:09:09.449Z,19.60
2018-06-22T12:11:38.936Z,19.60
2018-06-22T12:14:08.285Z,19.50
2018-06-22T12:19:06.763Z,18.60
2018-06-22T12:21:36.255Z,18.10
2018-06-22T12:24:05.654Z,17.60
2018-06-22T12:26:35.121Z,17.50
2018-06-22T12:29:05.062Z,17.30
2018-06-22T12:31:34.394Z,17.20
2018-06-22T12:34:03.811Z,17.20
2018-06-22T12:36:33.498Z,17.20
2018-06-22T12:39:03.298Z,17.40
2018-06-22T12:41:32.756Z,17.70
2018-06-22T12:44:02.142Z,18.10
2018-06-22T12:46:31.592Z,18.60
2018-06-22T12:49:00.733Z,19.00
2018-06-22T12:51:30.162Z,19.50
2018-06-22T12:53:59.635Z,19.70
2018-06-22T12:56:29.321Z,19.90
2018-06-22T12:58:58.768Z,19.40
2018-06-22T13:01:28.201Z,19.50
2018-06-22T13:03:57.617Z,19.50
2018-06-22T13:06:27.190Z,19.10
2018-06-22T13:08:56.549Z,18.90
2018-06-22T13:11:25.845Z,18.50
2018-06-22T13:13:55.188Z,18.20
2018-06-22T13:16:25.413Z,18.10
2018-06-22T13:18:54.494Z,18.10
2018-06-22T13:21:23.880Z,18.00
2018-06-22T13:23:52.962Z,17.70
2018-06-22T13:26:22.758Z,17.20
2018-06-22T13:28:52.138Z,17.10
2018-06-22T13:31:21.853Z,17.20
2018-06-22T13:33:51.295Z,17.20
2018-06-22T13:36:20.458Z,17.10
2018-06-22T13:38:49.925Z,17.00
2018-06-22T13:41:19.379Z,16.60
2018-06-22T13:43:48.733Z,16.40
2018-06-22T13:46:18.208Z,16.40
2018-06-22T13:48:47.592Z,16.70
2018-06-22T13:51:16.997Z,17.00
2018-06-22T13:53:46.485Z,17.10
2018-06-22T13:56:15.610Z,17.20
2018-06-22T13:58:45.049Z,17.70
2018-06-22T14:01:14.373Z,18.40
2018-06-22T14:03:49.529Z,18.60
2018-06-22T14:06:24.481Z,18.90
2018-06-22T14:08:53.549Z,19.20
2018-06-22T14:11:22.919Z,19.50
2018-06-22T14:13:52.298Z,19.30
2018-06-22T14:16:21.681Z,19.30
2018-06-22T14:18:51.058Z,19.80
2018-06-22T14:21:20.492Z,20.30
2018-06-22T14:23:49.609Z,20.40
2018-06-22T14:26:18.946Z,20.60
2018-06-22T14:28:48.438Z,20.50
2018-06-22T14:31:18.144Z,20.20
2018-06-22T14:33:47.911Z,19.60
2018-06-22T14:36:17.329Z,19.10
2018-06-22T14:38:46.727Z,18.90
2018-06-22T14:41:16.144Z,18.80
2018-06-22T14:43:45.876Z,18.70
2018-06-22T14:46:15.286Z,18.70
2018-06-22T14:51:30.213Z,19.00
2018-06-22T14:54:04.888Z,19.20
2018-06-22T14:56:40.586Z,19.70
2018-06-22T14:59:15.490Z,20.40
2018-06-22T15:03:52.215Z,21.20
2018-06-22T15:06:26.990Z,21.60
2018-06-22T15:08:56.403Z,21.00
2018-06-22T15:11:26.678Z,20.60
2018-06-22T15:13:56.080Z,20.80
2018-06-22T15:16:25.593Z,21.20
2018-06-22T15:18:55.165Z,21.70
2018-06-22T15:21:24.618Z,22.10
2018-06-22T15:23:54.306Z,23.20
2018-06-22T15:26:24.009Z,24.20
2018-06-22T15:28:53.372Z,24.40
2018-06-22T15:31:22.918Z,24.70
2018-06-22T15:33:57.696Z,25.40
2018-06-22T15:36:32.201Z,25.60
2018-06-22T15:39:06.707Z,25.00
2018-06-22T15:41:41.542Z,24.60
2018-06-22T15:44:16.596Z,23.90
2018-06-22T15:46:57.831Z,22.90
2018-06-22T15:49:35.249Z,22.10
2018-06-22T15:52:10.817Z,21.60
2018-06-22T15:54:45.507Z,21.10
2018-06-22T15:57:15.237Z,21.20
2018-06-22T15:59:45.179Z,21.30
2018-06-22T16:02:20.021Z,21.60
2018-06-22T16:04:49.154Z,23.20
2018-06-22T16:07:18.318Z,24.00
2018-06-22T16:09:53.304Z,23.50
2018-06-22T16:12:28.074Z,22.60
2018-06-22T16:15:03.039Z,21.50
2018-06-22T16:17:38.211Z,20.80
2018-06-22T16:20:13.436Z,20.00
2018-06-22T16:22:48.611Z,19.40
2018-06-22T16:25:23.265Z,19.00
2018-06-22T16:27:56.352Z,19.10
2018-06-22T16:30:26.299Z,19.20
2018-06-22T16:32:55.768Z,19.30
2018-06-22T16:35:25.807Z,19.30
2018-06-22T16:37:55.364Z,19.00
2018-06-22T16:40:25.220Z,19.00
2018-06-22T16:42:54.698Z,18.80
2018-06-22T16:45:24.298Z,19.80
2018-06-22T16:47:53.396Z,20.60
2018-06-22T16:50:22.459Z,20.60
2018-06-22T16:52:52.234Z,20.20
2018-06-22T16:55:21.943Z,20.00
2018-06-22T16:57:51.304Z,19.50
2018-06-22T17:00:20.736Z,19.30
2018-06-22T17:02:50.460Z,19.10
2018-06-22T17:05:19.820Z,18.80
2018-06-22T17:07:54.517Z,18.50
2018-06-22T17:10:29.391Z,18.40
2018-06-22T17:13:03.997Z,18.40
2018-06-22T17:15:38.805Z,18.30
2018-06-22T17:18:13.680Z,18.30
2018-06-22T17:20:44.074Z,18.40
2018-06-22T17:23:13.444Z,18.50
2018-06-22T17:25:42.994Z,19.00
2018-06-22T17:28:12.396Z,20.20
2018-06-22T17:30:41.869Z,22.30
2018-06-22T17:33:11.240Z,24.30
2018-06-22T17:35:40.640Z,24.70
2018-06-22T17:38:10.351Z,25.00
2018-06-22T17:40:39.719Z,24.90
2018-06-22T17:43:09.153Z,24.50
2018-06-22T17:45:38.583Z,24.40
2018-06-22T17:48:07.947Z,23.70
2018-06-22T17:50:37.284Z,22.70
2018-06-22T17:53:07.040Z,22.00
2018-06-22T17:55:36.462Z,22.40
2018-06-22T17:58:06.209Z,23.30
2018-06-22T18:00:40.899Z,24.00
2018-06-22T18:03:17.863Z,24.70
2018-06-22T18:05:52.801Z,25.10
2018-06-22T18:08:27.615Z,25.50
2018-06-22T18:12:02.183Z,25.40
2018-06-22T18:14:34.408Z,25.40
2018-06-22T18:17:06.206Z,25.60
2018-06-22T18:19:37.776Z,25.70
2018-06-22T18:22:07.340Z,24.60
2018-06-22T18:24:37.141Z,23.50
2018-06-22T18:29:35.533Z,21.00
2018-06-22T18:32:05.166Z,20.20
2018-06-22T18:34:34.528Z,20.00
2018-06-22T18:37:04.285Z,20.50
2018-06-22T18:39:33.625Z,21.40
2018-06-22T18:42:03.054Z,22.40
2018-06-22T18:44:32.482Z,23.30
2018-06-22T18:47:02.204Z,23.70
2018-06-22T18:49:31.588Z,24.20
2018-06-22T18:52:06.737Z,24.10
2018-06-22T18:54:41.670Z,23.30
2018-06-22T18:57:26.737Z,22.40
2018-06-22T19:00:02.235Z,21.30
2018-06-22T19:02:37.021Z,20.40
2018-06-22T19:05:06.569Z,19.80
2018-06-22T19:07:35.694Z,19.10
2018-06-22T19:10:05.100Z,18.30
2018-06-22T19:12:34.523Z,18.10
2018-06-22T19:15:03.985Z,17.90
2018-06-22T19:17:33.741Z,17.80
2018-06-22T19:20:03.226Z,17.70
2018-06-22T19:22:32.621Z,17.50
2018-06-22T19:25:02.045Z,17.50
2018-06-22T19:27:31.373Z,17.40
2018-06-22T19:30:00.960Z,17.40
2018-06-22T19:32:30.793Z,17.20
2018-06-22T19:35:05.488Z,17.10
2018-06-22T19:37:34.907Z,16.80
2018-06-22T19:40:04.449Z,16.70
2018-06-22T19:42:33.904Z,16.50
2018-06-22T19:45:08.646Z,16.40
2018-06-22T19:47:43.087Z,16.50
2018-06-22T19:50:18.016Z,16.40
2018-06-22T19:52:52.820Z,16.40
2018-06-22T19:55:22.318Z,16.20
2018-06-22T20:00:20.807Z,15.80
2018-06-22T20:02:50.176Z,15.90
2018-06-22T20:05:19.558Z,15.90
2018-06-22T20:07:49.551Z,15.70
2018-06-22T20:10:18.969Z,15.70
2018-06-22T20:15:46.193Z,15.70
2018-06-22T20:18:15.759Z,15.60
2018-06-22T20:20:45.441Z,15.50
2018-06-22T20:23:14.807Z,15.50
2018-06-22T20:25:44.720Z,15.30
2018-06-22T20:28:14.889Z,15.40
2018-06-22T20:30:45.609Z,15.20
2018-06-22T20:33:15.019Z,15.20
2018-06-22T20:35:49.800Z,15.20
2018-06-22T20:38:24.588Z,15.20
2018-06-22T20:40:59.608Z,15.00
2018-06-22T20:43:34.652Z,14.90
2018-06-22T20:46:03.836Z,14.70
2018-06-22T20:54:04.465Z,14.70
2018-06-22T20:56:33.860Z,14.60
2018-06-22T20:59:03.620Z,14.60
2018-06-22T21:01:33.009Z,14.50
2018-06-22T21:04:02.518Z,14.50
2018-06-22T21:06:32.204Z,14.60
2018-06-22T21:09:01.581Z,14.60
2018-06-22T21:11:30.638Z,14.60
2018-06-22T21:13:59.998Z,14.50
2018-06-22T21:16:29.417Z,14.60
2018-06-22T21:18:58.863Z,14.60
2018-06-22T21:21:33.662Z,14.60
2018-06-22T21:24:03.070Z,14.50
2018-06-22T21:26:33.164Z,14.40
2018-06-22T21:31:08.887Z,14.30
2018-06-22T21:33:43.820Z,14.30
2018-06-22T21:36:18.528Z,14.10
2018-06-22T21:38:53.543Z,13.90
2018-06-22T21:41:22.922Z,13.80
2018-06-22T21:43:52.680Z,13.90
2018-06-22T21:46:22.220Z,13.80
2018-06-22T21:48:51.926Z,13.70
2018-06-22T21:51:21.686Z,13.70
2018-06-22T21:53:51.236Z,13.70
2018-06-22T21:56:20.639Z,13.70
2018-06-22T21:58:49.999Z,13.90
2018-06-22T22:01:19.439Z,13.90
2018-06-22T22:03:48.526Z,13.90
2018-06-22T22:06:18.352Z,13.70
2018-06-22T22:08:48.190Z,13.50
2018-06-22T22:11:17.948Z,13.40
2018-06-22T22:13:47.724Z,13.30
2018-06-22T22:16:17.176Z,13.20
2018-06-22T22:18:46.718Z,13.20
2018-06-22T22:21:16.454Z,13.00
2018-06-22T22:23:46.331Z,13.10
2018-06-22T22:26:16.049Z,13.00
2018-06-22T22:28:45.456Z,12.90
2018-06-22T22:31:15.175Z,12.80
2018-06-22T22:33:44.600Z,12.80
2018-06-22T22:36:13.978Z,12.70
2018-06-22T22:38:43.319Z,12.70
2018-06-22T22:41:12.755Z,12.60
2018-06-22T22:43:42.119Z,12.60
2018-06-22T22:46:11.216Z,12.50
2018-06-22T22:48:40.592Z,12.40
2018-06-22T22:51:09.949Z,12.30
2018-06-22T22:53:39.329Z,12.30
2018-06-22T22:56:08.711Z,12.20
2018-06-22T22:58:37.803Z,12.30
2018-06-22T23:01:07.189Z,12.20
2018-06-22T23:03:36.593Z,12.10
2018-06-22T23:06:06.048Z,12.20
2018-06-22T23:08:35.559Z,12.20
2018-06-22T23:11:05.150Z,12.30
2018-06-22T23:13:34.593Z,12.20
2018-06-22T23:16:04.353Z,12.20
2018-06-22T23:18:33.444Z,12.10
2018-06-22T23:21:02.851Z,12.10
2018-06-22T23:23:35.138Z,12.00
2018-06-22T23:26:05.025Z,12.00
2018-06-22T23:28:35.091Z,12.00
2018-06-22T23:33:34.869Z,11.80
2018-06-22T23:36:05.109Z,11.70
2018-06-22T23:38:35.005Z,11.60
2018-06-22T23:41:04.372Z,11.60
2018-06-22T23:43:34.028Z,11.60
2018-06-22T23:46:03.493Z,11.50
2018-06-22T23:48:32.855Z,11.50
2018-06-22T23:51:02.459Z,11.50
2018-06-22T23:53:31.848Z,11.40
2018-06-22T23:56:01.588Z,11.40
2018-06-22T23:58:30.978Z,11.30
